Time;durP1;ratioP1;P1;durP2;ratioP2;P2;SDS_P1;SDS_P2;PMS_P1;PMS_P2;Temp;Humidity;BMP_temperature;BMP_pressure;BME280_temperature;BME280_humidity;BME280_pressure;Samples;Min_cycle;Max_cycle;Signal;HPM_P1;HPM_P2
2023/05/17 00:00:53;;;;;;;;;;;16.10;99.90;;;;;;4946697;28;20005;-65
2023/05/17 00:03:19;;;;;;;;;;;16.00;99.90;;;;;;4950346;28;20363;-66
2023/05/17 00:05:45;;;;;;;;;;;16.00;99.90;;;;;;4944314;28;20093;-67
2023/05/17 00:08:10;;;;;;;;;;;16.10;99.90;;;;;;4950058;28;20221;-67
2023/05/17 00:10:36;;;;;;;;;;;16.10;99.90;;;;;;4948079;28;19914;-67
2023/05/17 00:13:02;;;;;;;;;;;16.10;99.90;;;;;;4948728;28;20481;-66
2023/05/17 00:15:28;;;;;;;;;;;16.10;99.90;;;;;;4946322;28;19968;-70
2023/05/17 00:17:54;;;;;;;;;;;16.10;99.90;;;;;;4951149;28;20398;-70
2023/05/17 00:20:19;;;;;;;;;;;16.10;99.90;;;;;;4949826;28;19941;-70
2023/05/17 00:22:46;;;;;;;;;;;16.10;99.90;;;;;;4948307;28;19915;-70
2023/05/17 00:25:12;;;;;;;;;;;16.10;99.90;;;;;;4959749;28;19990;-70
2023/05/17 00:27:37;;;;;;;;;;;16.10;99.90;;;;;;4949233;28;19929;-70
2023/05/17 00:30:03;;;;;;;;;;;16.10;99.90;;;;;;4943295;28;20335;-70
2023/05/17 00:32:29;;;;;;;;;;;16.10;99.90;;;;;;4949293;28;19930;-70
2023/05/17 00:34:55;;;;;;;;;;;16.10;99.90;;;;;;4950329;28;20566;-70
2023/05/17 00:37:20;;;;;;;;;;;16.10;99.90;;;;;;4951780;28;19997;-70
2023/05/17 00:39:46;;;;;;;;;;;16.10;99.90;;;;;;4949321;28;19910;-71
2023/05/17 00:42:11;;;;;;;;;;;16.10;99.90;;;;;;4948052;28;20426;-71
2023/05/17 00:44:37;;;;;;;;;;;16.10;99.90;;;;;;4950799;28;19916;-71
2023/05/17 00:47:03;;;;;;;;;;;16.10;99.90;;;;;;4947765;28;19929;-70
2023/05/17 00:49:28;;;;;;;;;;;16.10;99.90;;;;;;4946030;28;20346;-70
2023/05/17 00:51:54;;;;;;;;;;;16.10;99.90;;;;;;4946947;28;20358;-70
2023/05/17 00:54:20;;;;;;;;;;;16.10;99.90;;;;;;4951188;28;19961;-67
2023/05/17 00:56:45;;;;;;;;;;;16.10;99.90;;;;;;4939279;28;19954;-67
2023/05/17 00:59:12;;;;;;;;;;;16.10;99.90;;;;;;4949978;28;19990;-67
2023/05/17 01:01:40;;;;;;;;;;;16.10;99.90;;;;;;4951734;28;19910;-67
2023/05/17 01:04:05;;;;;;;;;;;16.10;99.90;;;;;;4950084;28;19910;-67
2023/05/17 01:06:31;;;;;;;;;;;16.10;99.90;;;;;;4965812;28;19926;-67
2023/05/17 01:08:57;;;;;;;;;;;16.10;99.90;;;;;;4949407;28;19922;-67
2023/05/17 01:11:25;;;;;;;;;;;16.10;99.90;;;;;;4966183;28;20058;-70
2023/05/17 01:13:55;;;;;;;;;;;16.10;99.90;;;;;;4947640;28;20047;-71
2023/05/17 01:16:30;;;;;;;;;;;16.10;99.90;;;;;;4948863;28;20294;-70
2023/05/17 01:19:00;;;;;;;;;;;16.10;99.90;;;;;;4953035;28;20296;-71
2023/05/17 01:21:34;;;;;;;;;;;16.10;99.90;;;;;;4955605;28;19918;-70
2023/05/17 01:24:20;;;;;;;;;;;16.10;99.90;;;;;;4953110;28;19910;-71
2023/05/17 01:26:47;;;;;;;;;;;16.10;99.90;;;;;;4944828;28;19930;-70
2023/05/17 01:29:15;;;;;;;;;;;16.10;99.90;;;;;;4948401;28;19917;-71
2023/05/17 01:31:40;;;;;;;;;;;16.10;99.90;;;;;;4955685;28;19914;-67
2023/05/17 01:34:06;;;;;;;;;;;16.00;99.90;;;;;;4950142;28;19925;-67
2023/05/17 01:36:32;;;;;;;;;;;16.00;99.90;;;;;;4954068;28;19910;-67
2023/05/17 01:38:59;;;;;;;;;;;16.00;99.90;;;;;;4948603;28;19965;-67
2023/05/17 01:41:30;;;;;;;;;;;16.00;99.90;;;;;;4953040;28;19914;-66
2023/05/17 01:44:04;;;;;;;;;;;16.00;99.90;;;;;;4954860;28;19925;-66
2023/05/17 01:46:40;;;;;;;;;;;16.00;99.90;;;;;;4948373;28;19930;-67
2023/05/17 01:49:08;;;;;;;;;;;15.90;99.90;;;;;;4953326;28;19914;-67
2023/05/17 01:51:38;;;;;;;;;;;15.90;99.90;;;;;;4951249;28;19917;-66
2023/05/17 01:54:10;;;;;;;;;;;15.90;99.90;;;;;;4952211;28;19925;-67
2023/05/17 01:56:36;;;;;;;;;;;15.90;99.90;;;;;;4952705;28;19925;-67
2023/05/17 01:59:05;;;;;;;;;;;15.80;99.90;;;;;;4952791;28;19920;-66
2023/05/17 02:01:31;;;;;;;;;;;15.80;99.90;;;;;;4947382;28;20000;-67
2023/05/17 02:06:41;;;;;;;;;;;15.90;99.90;;;;;;4947977;28;19954;-66
2023/05/17 02:09:07;;;;;;;;;;;15.90;99.90;;;;;;4951888;28;19914;-70
2023/05/17 02:11:33;;;;;;;;;;;15.90;99.90;;;;;;4955222;28;20635;-71
2023/05/17 02:13:58;;;;;;;;;;;15.90;99.90;;;;;;4956201;28;19921;-71
2023/05/17 02:16:24;;;;;;;;;;;15.90;99.90;;;;;;4953056;28;19918;-71
2023/05/17 02:18:49;;;;;;;;;;;15.80;99.90;;;;;;4950182;28;19914;-71
2023/05/17 02:21:17;;;;;;;;;;;15.90;99.90;;;;;;4945728;28;20390;-71
2023/05/17 02:23:42;;;;;;;;;;;15.90;99.90;;;;;;4953261;28;20032;-71
2023/05/17 02:26:08;;;;;;;;;;;15.90;99.90;;;;;;4952577;28;20224;-70
2023/05/17 02:28:34;;;;;;;;;;;15.90;99.90;;;;;;4955987;28;19928;-70
2023/05/17 02:30:59;;;;;;;;;;;15.90;99.90;;;;;;4949455;28;20072;-71
2023/05/17 02:33:25;;;;;;;;;;;15.90;99.90;;;;;;4954956;28;19997;-71
2023/05/17 02:35:50;;;;;;;;;;;15.90;99.90;;;;;;4950516;28;20061;-71
2023/05/17 02:38:16;;;;;;;;;;;15.90;99.90;;;;;;4967961;28;19918;-71
2023/05/17 02:40:41;;;;;;;;;;;15.90;99.90;;;;;;4947980;28;20453;-71
2023/05/17 02:43:07;;;;;;;;;;;16.00;99.90;;;;;;4955315;28;19921;-71
2023/05/17 02:45:32;;;;;;;;;;;16.00;99.90;;;;;;4952646;28;19921;-71
2023/05/17 02:47:58;;;;;;;;;;;16.00;99.90;;;;;;4952895;28;21478;-71
2023/05/17 02:50:23;;;;;;;;;;;16.00;99.90;;;;;;4950600;28;20290;-71
2023/05/17 02:52:49;;;;;;;;;;;16.00;99.90;;;;;;4950774;28;19910;-71
2023/05/17 02:55:15;;;;;;;;;;;16.00;99.90;;;;;;4955996;28;20463;-70
2023/05/17 02:57:40;;;;;;;;;;;16.00;99.90;;;;;;4949761;28;20017;-70
2023/05/17 03:00:07;;;;;;;;;;;16.00;99.90;;;;;;4952768;28;19922;-70
2023/05/17 03:02:33;;;;;;;;;;;16.00;99.90;;;;;;4957224;28;20117;-71
2023/05/17 03:04:58;;;;;;;;;;;16.00;99.90;;;;;;4954634;28;19918;-67
2023/05/17 03:07:24;;;;;;;;;;;16.00;99.90;;;;;;4959100;28;19927;-71
2023/05/17 03:09:49;;;;;;;;;;;16.00;99.90;;;;;;4958881;28;19910;-71
2023/05/17 03:12:15;;;;;;;;;;;16.00;99.90;;;;;;4960564;28;19925;-71
2023/05/17 03:14:40;;;;;;;;;;;16.00;99.90;;;;;;4954265;28;19930;-71
2023/05/17 03:17:06;;;;;;;;;;;16.10;99.90;;;;;;4956439;28;20418;-70
2023/05/17 03:19:31;;;;;;;;;;;16.00;99.90;;;;;;4954067;28;19918;-71
2023/05/17 03:21:57;;;;;;;;;;;16.00;99.90;;;;;;4961246;28;19914;-70
2023/05/17 03:24:22;;;;;;;;;;;16.00;99.90;;;;;;4960581;28;19950;-70
2023/05/17 03:26:48;;;;;;;;;;;16.10;99.90;;;;;;4960166;28;19922;-71
2023/05/17 03:29:13;;;;;;;;;;;16.00;99.90;;;;;;4959691;28;19918;-70
2023/05/17 03:31:39;;;;;;;;;;;16.00;99.90;;;;;;4954040;28;20303;-70
2023/05/17 03:34:05;;;;;;;;;;;15.90;99.90;;;;;;4958064;28;19913;-71
2023/05/17 03:36:32;;;;;;;;;;;15.90;99.90;;;;;;4954543;28;19918;-70
2023/05/17 03:38:58;;;;;;;;;;;15.90;99.90;;;;;;4958891;28;19915;-70
2023/05/17 03:41:23;;;;;;;;;;;16.00;99.90;;;;;;4958332;28;19921;-70
2023/05/17 03:43:49;;;;;;;;;;;16.00;99.90;;;;;;4956783;28;20375;-70
2023/05/17 03:46:14;;;;;;;;;;;16.00;99.90;;;;;;4954243;28;20048;-67
2023/05/17 03:48:40;;;;;;;;;;;16.00;99.90;;;;;;4953752;28;19918;-66
2023/05/17 03:51:05;;;;;;;;;;;16.00;99.90;;;;;;4951793;28;19910;-66
2023/05/17 03:53:31;;;;;;;;;;;16.00;99.90;;;;;;4948330;28;19914;-66
2023/05/17 03:55:56;;;;;;;;;;;16.10;99.90;;;;;;4950454;28;19921;-67
2023/05/17 03:58:22;;;;;;;;;;;16.10;99.90;;;;;;4952243;28;19937;-67
2023/05/17 04:00:47;;;;;;;;;;;16.10;99.90;;;;;;4951944;28;20004;-67
2023/05/17 04:03:13;;;;;;;;;;;16.10;99.90;;;;;;4954502;28;21407;-66
2023/05/17 04:05:40;;;;;;;;;;;16.10;99.90;;;;;;4948638;28;19968;-67
2023/05/17 04:08:05;;;;;;;;;;;16.10;99.90;;;;;;4955703;28;19997;-66
2023/05/17 04:10:31;;;;;;;;;;;16.10;99.90;;;;;;4954953;28;19937;-66
2023/05/17 04:12:56;;;;;;;;;;;16.20;99.90;;;;;;4953597;28;19924;-66
2023/05/17 04:15:22;;;;;;;;;;;16.20;99.90;;;;;;4949742;28;19918;-67
2023/05/17 04:17:47;;;;;;;;;;;16.20;99.90;;;;;;4954288;28;20279;-66
2023/05/17 04:20:13;;;;;;;;;;;16.20;99.90;;;;;;4945218;28;19910;-67
2023/05/17 04:22:38;;;;;;;;;;;16.20;99.90;;;;;;4955555;28;20224;-66
2023/05/17 04:25:04;;;;;;;;;;;16.30;99.90;;;;;;4950713;28;19925;-67
2023/05/17 04:27:30;;;;;;;;;;;16.30;99.90;;;;;;4956204;28;19941;-66
2023/05/17 04:29:56;;;;;;;;;;;16.30;99.90;;;;;;4952812;28;20069;-65
2023/05/17 04:32:22;;;;;;;;;;;16.30;99.90;;;;;;4952718;28;19922;-66
2023/05/17 04:34:48;;;;;;;;;;;16.30;99.90;;;;;;4956833;28;19946;-65
2023/05/17 04:37:15;;;;;;;;;;;16.30;99.90;;;;;;4948981;28;20005;-66
2023/05/17 04:39:40;;;;;;;;;;;16.30;99.90;;;;;;4953433;28;19918;-67
2023/05/17 04:42:06;;;;;;;;;;;16.30;99.90;;;;;;4957322;28;19914;-70
2023/05/17 04:44:31;;;;;;;;;;;16.40;99.90;;;;;;4957746;28;20406;-70
2023/05/17 04:46:57;;;;;;;;;;;16.40;99.90;;;;;;4956572;28;20426;-70
2023/05/17 04:49:23;;;;;;;;;;;16.40;99.90;;;;;;4954707;28;19918;-70
2023/05/17 04:51:49;;;;;;;;;;;16.40;99.90;;;;;;4959119;28;20001;-70
2023/05/17 04:54:14;;;;;;;;;;;16.40;99.90;;;;;;4961146;28;19921;-69
2023/05/17 04:56:40;;;;;;;;;;;16.30;99.90;;;;;;4959432;28;19910;-69
2023/05/17 04:59:06;;;;;;;;;;;16.40;99.90;;;;;;4959356;28;19925;-69
2023/05/17 05:01:31;;;;;;;;;;;16.40;99.90;;;;;;4949615;28;19926;-69
2023/05/17 05:03:57;;;;;;;;;;;16.40;99.90;;;;;;4953030;28;19910;-69
2023/05/17 05:06:23;;;;;;;;;;;16.40;99.90;;;;;;4959731;28;19988;-69
2023/05/17 05:08:49;;;;;;;;;;;16.40;99.90;;;;;;4956673;28;20074;-69
2023/05/17 05:11:14;;;;;;;;;;;16.40;99.90;;;;;;4958048;28;19910;-69
2023/05/17 05:13:41;;;;;;;;;;;16.50;99.90;;;;;;4956790;28;19917;-68
2023/05/17 05:16:07;;;;;;;;;;;16.50;99.90;;;;;;4956376;28;20433;-67
2023/05/17 05:18:32;;;;;;;;;;;16.60;99.90;;;;;;4952851;28;19910;-65
2023/05/17 05:20:58;;;;;;;;;;;16.60;99.90;;;;;;4956154;28;20429;-70
2023/05/17 05:23:23;;;;;;;;;;;16.60;99.90;;;;;;4958481;28;19914;-65
2023/05/17 05:25:49;;;;;;;;;;;16.60;99.90;;;;;;4952071;28;19914;-65
2023/05/17 05:28:15;;;;;;;;;;;16.60;99.90;;;;;;4950852;28;20013;-65
2023/05/17 05:30:40;;;;;;;;;;;16.70;99.90;;;;;;4940569;28;19918;-65
2023/05/17 05:33:06;;;;;;;;;;;16.70;99.90;;;;;;4945681;28;20433;-65
2023/05/17 05:35:31;;;;;;;;;;;16.70;99.90;;;;;;4946986;28;19918;-64
2023/05/17 05:37:57;;;;;;;;;;;16.70;99.90;;;;;;4947569;28;19924;-65
2023/05/17 05:40:23;;;;;;;;;;;16.70;99.90;;;;;;4947583;28;19918;-65
2023/05/17 05:42:48;;;;;;;;;;;16.70;99.90;;;;;;4949212;28;19914;-65
2023/05/17 05:45:14;;;;;;;;;;;16.70;99.90;;;;;;4948512;28;20025;-65
2023/05/17 05:47:40;;;;;;;;;;;16.70;99.90;;;;;;4952502;28;19949;-65
2023/05/17 05:50:06;;;;;;;;;;;16.70;99.90;;;;;;4951234;28;19954;-65
2023/05/17 05:52:31;;;;;;;;;;;16.70;99.90;;;;;;4949893;28;20515;-65
2023/05/17 05:54:57;;;;;;;;;;;16.70;99.90;;;;;;4953693;28;19914;-65
2023/05/17 05:57:22;;;;;;;;;;;16.70;99.90;;;;;;4943873;28;20094;-64
2023/05/17 05:59:48;;;;;;;;;;;16.70;99.90;;;;;;4953580;28;19913;-65
2023/05/17 06:02:16;;;;;;;;;;;16.70;99.90;;;;;;4954047;28;19919;-65
2023/05/17 06:04:41;;;;;;;;;;;16.80;99.90;;;;;;4952742;28;19913;-65
2023/05/17 06:07:07;;;;;;;;;;;16.80;99.90;;;;;;4955213;28;20254;-65
2023/05/17 06:09:32;;;;;;;;;;;16.80;99.90;;;;;;4951214;28;19920;-66
2023/05/17 06:11:58;;;;;;;;;;;16.80;99.90;;;;;;4951754;28;20274;-65
2023/05/17 06:14:23;;;;;;;;;;;16.80;99.90;;;;;;4957314;28;19926;-65
2023/05/17 06:16:49;;;;;;;;;;;16.90;99.90;;;;;;4949900;28;19909;-69
2023/05/17 06:19:14;;;;;;;;;;;16.90;99.90;;;;;;4954037;28;19929;-69
2023/05/17 06:21:40;;;;;;;;;;;16.90;99.90;;;;;;4953487;28;20374;-70
2023/05/17 06:24:06;;;;;;;;;;;16.90;99.90;;;;;;4956241;28;20141;-70
2023/05/17 06:26:31;;;;;;;;;;;16.90;99.90;;;;;;4954699;28;19922;-70
2023/05/17 06:28:57;;;;;;;;;;;16.90;99.90;;;;;;4952573;28;20340;-69
2023/05/17 06:31:22;;;;;;;;;;;16.90;99.90;;;;;;4949883;28;19922;-69
2023/05/17 06:33:47;;;;;;;;;;;16.90;99.90;;;;;;4947666;28;19918;-69
2023/05/17 06:36:13;;;;;;;;;;;16.90;99.90;;;;;;4953243;28;20465;-69
2023/05/17 06:38:38;;;;;;;;;;;17.00;99.90;;;;;;4955595;28;19921;-69
2023/05/17 06:41:04;;;;;;;;;;;17.00;99.90;;;;;;4953011;28;19942;-70
2023/05/17 06:43:30;;;;;;;;;;;16.90;99.90;;;;;;4945101;28;19910;-69
2023/05/17 06:45:55;;;;;;;;;;;16.90;99.90;;;;;;4941691;28;19915;-70
2023/05/17 06:48:21;;;;;;;;;;;16.90;99.90;;;;;;4944553;28;19925;-69
2023/05/17 06:50:47;;;;;;;;;;;16.90;99.90;;;;;;4949335;28;19940;-70
2023/05/17 06:53:12;;;;;;;;;;;16.90;99.90;;;;;;4952542;28;19932;-69
2023/05/17 06:55:38;;;;;;;;;;;16.90;99.90;;;;;;4951722;28;21037;-66
2023/05/17 06:58:04;;;;;;;;;;;17.00;99.90;;;;;;4948373;28;19918;-66
2023/05/17 07:00:29;;;;;;;;;;;17.00;99.90;;;;;;4949389;28;19922;-66
2023/05/17 07:02:55;;;;;;;;;;;17.00;99.90;;;;;;4945693;28;19953;-65
2023/05/17 07:05:22;;;;;;;;;;;17.00;99.90;;;;;;4948715;28;19969;-66
2023/05/17 07:07:48;;;;;;;;;;;17.00;99.90;;;;;;4951753;28;19932;-65
2023/05/17 07:10:14;;;;;;;;;;;17.00;99.90;;;;;;4946518;28;20255;-66
2023/05/17 07:12:39;;;;;;;;;;;17.10;99.90;;;;;;4951049;28;20296;-68
2023/05/17 07:15:05;;;;;;;;;;;17.10;99.90;;;;;;4947996;28;19918;-69
2023/05/17 07:17:30;;;;;;;;;;;17.10;99.90;;;;;;4966184;28;19969;-69
2023/05/17 07:19:56;;;;;;;;;;;17.20;99.90;;;;;;4945597;28;19918;-68
2023/05/17 07:22:21;;;;;;;;;;;17.20;99.90;;;;;;4947844;28;20097;-69
2023/05/17 07:24:47;;;;;;;;;;;17.20;99.90;;;;;;4947083;28;19922;-69
2023/05/17 07:27:12;;;;;;;;;;;17.20;99.90;;;;;;4950377;28;20020;-72
2023/05/17 07:29:38;;;;;;;;;;;17.20;99.90;;;;;;4943479;28;19910;-69
2023/05/17 07:32:04;;;;;;;;;;;17.20;99.90;;;;;;4940296;28;20056;-68
2023/05/17 07:34:30;;;;;;;;;;;17.20;99.90;;;;;;4942199;28;19914;-66
2023/05/17 07:36:55;;;;;;;;;;;17.30;99.90;;;;;;4946529;28;19965;-65
2023/05/17 07:39:21;;;;;;;;;;;17.30;99.90;;;;;;4937045;28;19914;-66
2023/05/17 07:41:46;;;;;;;;;;;17.40;99.90;;;;;;4949308;28;20384;-66
2023/05/17 07:44:12;;;;;;;;;;;17.50;99.90;;;;;;4947092;28;19929;-66
2023/05/17 07:46:37;;;;;;;;;;;17.50;99.90;;;;;;4948274;28;19918;-66
2023/05/17 07:49:03;;;;;;;;;;;17.60;99.90;;;;;;4944014;28;20352;-66
2023/05/17 07:51:28;;;;;;;;;;;17.60;99.90;;;;;;4946571;28;19914;-70
2023/05/17 07:53:54;;;;;;;;;;;17.70;99.90;;;;;;4953813;28;19949;-66
2023/05/17 07:56:19;;;;;;;;;;;17.70;99.90;;;;;;4950651;28;20393;-66
2023/05/17 07:58:45;;;;;;;;;;;17.70;99.90;;;;;;4942503;28;19918;-66
2023/05/17 08:01:10;;;;;;;;;;;17.70;99.90;;;;;;4948042;28;19918;-65
2023/05/17 08:03:36;;;;;;;;;;;17.70;99.90;;;;;;4946881;28;20435;-65
2023/05/17 08:06:01;;;;;;;;;;;17.70;99.90;;;;;;4948931;28;20016;-65
2023/05/17 08:08:27;;;;;;;;;;;17.70;99.90;;;;;;4952786;28;19914;-65
2023/05/17 08:10:52;;;;;;;;;;;17.70;99.90;;;;;;4951399;28;19914;-66
2023/05/17 08:13:18;;;;;;;;;;;17.80;99.90;;;;;;4953021;28;20046;-65
2023/05/17 08:15:43;;;;;;;;;;;17.70;99.90;;;;;;4952344;28;19925;-66
2023/05/17 08:18:09;;;;;;;;;;;17.60;99.90;;;;;;4946936;28;19922;-65
2023/05/17 08:20:35;;;;;;;;;;;17.60;99.90;;;;;;4956206;28;20138;-66
2023/05/17 08:23:00;;;;;;;;;;;17.60;99.90;;;;;;4944260;28;19960;-66
2023/05/17 08:25:26;;;;;;;;;;;17.60;99.90;;;;;;4948064;28;19914;-65
2023/05/17 08:27:51;;;;;;;;;;;17.60;99.90;;;;;;4946314;28;20013;-66
2023/05/17 08:30:17;;;;;;;;;;;17.50;99.90;;;;;;4954475;28;20371;-66
2023/05/17 08:32:44;;;;;;;;;;;17.50;99.90;;;;;;4949475;28;19948;-66
2023/05/17 08:35:10;;;;;;;;;;;17.50;99.90;;;;;;4944893;28;20508;-66
2023/05/17 08:37:35;;;;;;;;;;;17.50;99.90;;;;;;4947405;28;20395;-65
2023/05/17 08:40:01;;;;;;;;;;;17.50;99.90;;;;;;4949002;28;19916;-65
2023/05/17 08:42:28;;;;;;;;;;;17.50;99.90;;;;;;4946282;28;20005;-65
2023/05/17 08:44:54;;;;;;;;;;;17.50;99.90;;;;;;4949809;28;19913;-65
2023/05/17 08:47:28;;;;;;;;;;;17.60;99.90;;;;;;4949244;28;19926;-65
2023/05/17 08:50:03;;;;;;;;;;;17.60;99.90;;;;;;4970868;28;19925;-70
2023/05/17 08:52:30;;;;;;;;;;;17.60;99.90;;;;;;4949971;28;20000;-70
2023/05/17 08:54:55;;;;;;;;;;;17.60;99.90;;;;;;4947538;28;19918;-70
2023/05/17 08:57:23;;;;;;;;;;;17.60;99.90;;;;;;4945062;28;20024;-70
2023/05/17 08:59:49;;;;;;;;;;;17.60;99.90;;;;;;4946661;28;20342;-70
2023/05/17 09:02:15;;;;;;;;;;;17.60;99.90;;;;;;4947108;28;19957;-70
2023/05/17 09:04:41;;;;;;;;;;;17.70;99.90;;;;;;4950138;28;19918;-70
2023/05/17 09:07:07;;;;;;;;;;;17.70;99.90;;;;;;4958166;28;19922;-70
2023/05/17 09:09:33;;;;;;;;;;;17.70;99.90;;;;;;4952567;28;20403;-66
2023/05/17 09:12:01;;;;;;;;;;;17.60;99.90;;;;;;4951839;28;19914;-66
2023/05/17 09:14:31;;;;;;;;;;;17.50;99.90;;;;;;4952025;28;19949;-66
2023/05/17 09:16:56;;;;;;;;;;;17.50;99.90;;;;;;4952137;28;20476;-66
2023/05/17 09:19:22;;;;;;;;;;;17.50;99.90;;;;;;4952544;28;20219;-66
2023/05/17 09:21:48;;;;;;;;;;;17.50;99.90;;;;;;4957066;28;20307;-66
2023/05/17 09:24:17;;;;;;;;;;;17.50;99.90;;;;;;4948820;28;20004;-66
2023/05/17 09:26:44;;;;;;;;;;;17.40;99.90;;;;;;4946623;28;19921;-66
2023/05/17 09:29:13;;;;;;;;;;;17.40;99.90;;;;;;4949009;28;20342;-66
2023/05/17 09:31:39;;;;;;;;;;;17.40;99.90;;;;;;4947897;28;19910;-66
2023/05/17 09:34:08;;;;;;;;;;;17.50;99.90;;;;;;4949462;28;19925;-66
2023/05/17 09:36:37;;;;;;;;;;;17.60;99.90;;;;;;4955893;28;20414;-66
2023/05/17 09:39:10;;;;;;;;;;;17.70;99.90;;;;;;4950480;28;19976;-66
2023/05/17 09:41:46;;;;;;;;;;;17.70;99.90;;;;;;4949884;28;20067;-66
2023/05/17 09:44:12;;;;;;;;;;;17.80;99.90;;;;;;4950467;28;20012;-66
2023/05/17 09:46:40;;;;;;;;;;;17.90;99.90;;;;;;4947861;28;20344;-70
2023/05/17 09:49:08;;;;;;;;;;;18.00;99.90;;;;;;4947254;28;20761;-66
2023/05/17 09:51:37;;;;;;;;;;;18.00;99.90;;;;;;4948739;28;19953;-65
2023/05/17 09:54:05;;;;;;;;;;;18.00;99.90;;;;;;4948977;28;19945;-65
2023/05/17 09:56:31;;;;;;;;;;;18.10;99.90;;;;;;4946778;28;19918;-65
2023/05/17 09:59:00;;;;;;;;;;;18.10;99.90;;;;;;4949876;28;19945;-65
2023/05/17 10:01:26;;;;;;;;;;;18.10;99.90;;;;;;4948456;28;19917;-65
2023/05/17 10:03:52;;;;;;;;;;;18.20;99.90;;;;;;4961388;28;20394;-65
2023/05/17 10:06:20;;;;;;;;;;;18.20;99.90;;;;;;4946892;28;19922;-69
2023/05/17 10:08:52;;;;;;;;;;;18.30;99.90;;;;;;4948449;28;20355;-70
2023/05/17 10:11:21;;;;;;;;;;;18.30;99.90;;;;;;4950739;28;19949;-69
2023/05/17 10:13:51;;;;;;;;;;;18.40;99.90;;;;;;4950413;28;20581;-70
2023/05/17 10:16:17;;;;;;;;;;;18.40;99.90;;;;;;4950034;28;19957;-69
2023/05/17 10:18:43;;;;;;;;;;;18.50;99.90;;;;;;4951445;28;20009;-70
2023/05/17 10:21:09;;;;;;;;;;;18.50;99.90;;;;;;4952333;28;19913;-70
2023/05/17 10:23:37;;;;;;;;;;;18.60;99.90;;;;;;4951456;28;20423;-70
2023/05/17 10:26:03;;;;;;;;;;;18.60;99.90;;;;;;4955089;28;19914;-70
2023/05/17 10:28:29;;;;;;;;;;;18.80;99.90;;;;;;4954377;28;20267;-70
2023/05/17 10:30:56;;;;;;;;;;;18.90;99.90;;;;;;4948873;28;19913;-70
2023/05/17 10:33:21;;;;;;;;;;;19.00;99.90;;;;;;4952314;28;19922;-70
2023/05/17 10:35:48;;;;;;;;;;;19.00;99.90;;;;;;4954206;28;19906;-70
2023/05/17 10:38:14;;;;;;;;;;;18.90;99.90;;;;;;4951600;28;20294;-69
2023/05/17 10:40:40;;;;;;;;;;;19.00;99.90;;;;;;4950459;28;19916;-70
2023/05/17 10:43:07;;;;;;;;;;;18.90;99.90;;;;;;4946941;28;20469;-69
2023/05/17 10:45:35;;;;;;;;;;;18.80;99.90;;;;;;4945424;28;19921;-69
2023/05/17 10:48:04;;;;;;;;;;;18.80;99.90;;;;;;4947600;28;19922;-69
2023/05/17 10:50:30;;;;;;;;;;;18.70;99.90;;;;;;4946402;28;19906;-70
2023/05/17 10:52:57;;;;;;;;;;;18.70;99.90;;;;;;4941496;28;20299;-69
2023/05/17 10:55:24;;;;;;;;;;;18.60;99.90;;;;;;4945159;28;19914;-70
2023/05/17 10:58:14;;;;;;;;;;;18.60;99.90;;;;;;4947427;28;19910;-69
2023/05/17 11:00:40;;;;;;;;;;;18.60;99.90;;;;;;4949777;28;19921;-71
2023/05/17 11:03:16;;;;;;;;;;;18.60;99.90;;;;;;4949689;28;19957;-65
2023/05/17 11:06:00;;;;;;;;;;;18.60;99.90;;;;;;4950393;28;19926;-70
2023/05/17 11:08:26;;;;;;;;;;;18.40;99.90;;;;;;4953085;28;20341;-70
2023/05/17 11:11:10;;;;;;;;;;;18.30;99.90;;;;;;4947282;28;19914;-70
2023/05/17 11:13:53;;;;;;;;;;;18.20;99.90;;;;;;4948096;28;19997;-70
2023/05/17 11:16:20;;;;;;;;;;;18.10;99.90;;;;;;4948636;28;19926;-70
2023/05/17 11:18:47;;;;;;;;;;;17.90;99.90;;;;;;4951422;28;19914;-70
2023/05/17 11:21:14;;;;;;;;;;;17.90;99.90;;;;;;4965325;28;20438;-66
2023/05/17 11:23:40;;;;;;;;;;;17.80;99.90;;;;;;4949754;28;19914;-69
2023/05/17 11:26:17;;;;;;;;;;;17.80;99.90;;;;;;4953472;28;20085;-70
2023/05/17 11:28:43;;;;;;;;;;;17.70;99.90;;;;;;4952977;28;19917;-70
2023/05/17 11:31:08;;;;;;;;;;;17.70;99.90;;;;;;4948723;28;19914;-70
2023/05/17 11:33:39;;;;;;;;;;;17.70;99.90;;;;;;4945830;28;20339;-70
2023/05/17 11:36:12;;;;;;;;;;;17.70;99.90;;;;;;4951787;28;19950;-71
2023/05/17 11:38:38;;;;;;;;;;;17.60;99.90;;;;;;4958709;28;19918;-71
2023/05/17 11:41:17;;;;;;;;;;;17.70;99.90;;;;;;4952089;28;20424;-71
2023/05/17 11:43:47;;;;;;;;;;;17.70;99.90;;;;;;4951209;28;19957;-71
2023/05/17 11:46:19;;;;;;;;;;;17.70;99.90;;;;;;4953866;28;19951;-71
2023/05/17 11:48:45;;;;;;;;;;;17.70;99.90;;;;;;4954053;28;19910;-73
2023/05/17 11:51:13;;;;;;;;;;;17.60;99.90;;;;;;4956902;28;20236;-70
2023/05/17 11:53:39;;;;;;;;;;;17.60;99.90;;;;;;4944724;28;20283;-71
2023/05/17 11:56:05;;;;;;;;;;;17.60;99.90;;;;;;4948334;28;19918;-71
2023/05/17 11:58:30;;;;;;;;;;;17.70;99.90;;;;;;4950701;28;19956;-71
2023/05/17 12:00:57;;;;;;;;;;;17.80;99.90;;;;;;4949927;28;20051;-71
2023/05/17 12:03:24;;;;;;;;;;;17.90;99.90;;;;;;4947561;28;20234;-70
2023/05/17 12:05:51;;;;;;;;;;;18.00;99.90;;;;;;4942739;28;20047;-70
2023/05/17 12:08:17;;;;;;;;;;;18.20;99.90;;;;;;4949244;28;19961;-71
2023/05/17 12:10:48;;;;;;;;;;;18.20;99.90;;;;;;4949429;28;20351;-71
2023/05/17 12:13:13;;;;;;;;;;;18.20;99.90;;;;;;4950285;28;19921;-70
2023/05/17 12:15:40;;;;;;;;;;;18.20;99.90;;;;;;4946396;28;19918;-70
2023/05/17 12:18:05;;;;;;;;;;;18.30;99.90;;;;;;4950901;28;19931;-66
2023/05/17 12:20:31;;;;;;;;;;;18.30;99.90;;;;;;4948038;28;19914;-66
2023/05/17 12:22:57;;;;;;;;;;;18.30;99.90;;;;;;4948919;28;20434;-66
2023/05/17 12:25:28;;;;;;;;;;;18.30;99.90;;;;;;4956012;28;19925;-67
2023/05/17 12:28:11;;;;;;;;;;;18.30;99.90;;;;;;4954701;28;20285;-67
2023/05/17 12:30:37;;;;;;;;;;;18.40;99.90;;;;;;4944214;28;19918;-66
2023/05/17 12:33:02;;;;;;;;;;;18.40;99.90;;;;;;4952233;28;19961;-66
2023/05/17 12:35:28;;;;;;;;;;;18.40;99.90;;;;;;4951012;28;19917;-68
2023/05/17 12:37:53;;;;;;;;;;;18.50;99.90;;;;;;4954343;28;19918;-70
2023/05/17 12:40:19;;;;;;;;;;;18.60;99.90;;;;;;4952345;28;20396;-67
2023/05/17 12:42:45;;;;;;;;;;;18.60;99.90;;;;;;4954578;28;19917;-66
2023/05/17 12:45:11;;;;;;;;;;;18.60;99.90;;;;;;4951397;28;20374;-67
2023/05/17 12:47:37;;;;;;;;;;;18.60;99.90;;;;;;4952794;28;20469;-66
2023/05/17 12:50:04;;;;;;;;;;;18.60;99.90;;;;;;4951829;28;20163;-66
2023/05/17 12:52:34;;;;;;;;;;;18.60;99.90;;;;;;4946423;28;19921;-66
2023/05/17 12:55:01;;;;;;;;;;;18.50;99.90;;;;;;4956755;28;20016;-66
2023/05/17 12:57:27;;;;;;;;;;;18.40;99.90;;;;;;4949364;28;19920;-71
2023/05/17 12:59:52;;;;;;;;;;;18.40;99.90;;;;;;4954381;28;19914;-71
2023/05/17 13:02:18;;;;;;;;;;;18.30;99.90;;;;;;4948769;28;20009;-71
2023/05/17 13:04:45;;;;;;;;;;;18.40;99.90;;;;;;4945577;28;19914;-71
2023/05/17 13:07:10;;;;;;;;;;;18.40;99.90;;;;;;4947532;28;20057;-71
2023/05/17 13:09:44;;;;;;;;;;;18.30;99.90;;;;;;4948241;28;19910;-70
2023/05/17 13:12:10;;;;;;;;;;;18.40;99.90;;;;;;4954426;28;19941;-71
2023/05/17 13:14:43;;;;;;;;;;;18.40;99.90;;;;;;4949327;28;19918;-70
2023/05/17 13:17:15;;;;;;;;;;;18.40;99.90;;;;;;4945797;28;19925;-70
2023/05/17 13:19:41;;;;;;;;;;;18.50;99.90;;;;;;4954843;28;19968;-71
2023/05/17 13:22:07;;;;;;;;;;;18.50;99.90;;;;;;4954603;28;19914;-71
2023/05/17 13:24:33;;;;;;;;;;;18.50;99.90;;;;;;4947955;28;19997;-71
2023/05/17 13:26:58;;;;;;;;;;;18.50;99.90;;;;;;4954481;28;19965;-71
2023/05/17 13:29:24;;;;;;;;;;;18.50;99.90;;;;;;4950911;28;19914;-71
2023/05/17 13:31:50;;;;;;;;;;;18.40;99.90;;;;;;4950628;28;19949;-71
2023/05/17 13:34:15;;;;;;;;;;;18.30;99.90;;;;;;4947060;28;20375;-71
2023/05/17 13:36:41;;;;;;;;;;;18.10;99.90;;;;;;4952199;28;19945;-71
2023/05/17 13:39:06;;;;;;;;;;;18.10;99.90;;;;;;4952528;28;20018;-70
2023/05/17 13:41:32;;;;;;;;;;;17.90;99.90;;;;;;4950931;28;20571;-71
2023/05/17 13:43:58;;;;;;;;;;;17.90;99.90;;;;;;4950838;28;19911;-70
2023/05/17 13:46:23;;;;;;;;;;;17.80;99.90;;;;;;4952047;28;19922;-71
2023/05/17 13:48:49;;;;;;;;;;;17.70;99.90;;;;;;4942119;28;20005;-71
2023/05/17 13:51:14;;;;;;;;;;;17.60;99.90;;;;;;4953141;28;19961;-70
2023/05/17 13:53:41;;;;;;;;;;;17.50;99.90;;;;;;4929696;28;19914;-69
2023/05/17 13:56:07;;;;;;;;;;;17.60;99.90;;;;;;4936890;28;19918;-71
2023/05/17 13:58:32;;;;;;;;;;;17.60;99.90;;;;;;4947296;28;19918;-72
2023/05/17 14:00:58;;;;;;;;;;;17.50;99.90;;;;;;4947131;28;20411;-72
2023/05/17 14:03:23;;;;;;;;;;;17.50;99.90;;;;;;4946579;28;19921;-71
2023/05/17 14:05:51;;;;;;;;;;;17.40;99.90;;;;;;4948029;28;19922;-71
2023/05/17 14:08:17;;;;;;;;;;;17.40;99.90;;;;;;4950255;28;19917;-71
2023/05/17 14:10:42;;;;;;;;;;;17.40;99.90;;;;;;4950025;28;20683;-72
2023/05/17 14:13:08;;;;;;;;;;;17.40;99.90;;;;;;4948531;28;19918;-66
2023/05/17 14:15:37;;;;;;;;;;;17.40;99.90;;;;;;4950663;28;20012;-66